sensor_id;sensor_type;location;lat;lon;timestamp;P1;durP1;ratioP1;P2;durP2;ratioP2
57615;SDS011;43816;52.054;-9.494;2023-03-31T00:00:05;2.07;;;1.87;;
57615;SDS011;43816;52.054;-9.494;2023-03-31T00:00:16;1.83;;;1.73;;
57615;SDS011;43816;52.054;-9.494;2023-03-31T00:00:27;1.80;;;1.70;;
57615;SDS011;43816;52.054;-9.494;2023-03-31T00:00:38;1.88;;;1.77;;
57615;SDS011;43816;52.054;-9.494;2023-03-31T00:00:51;2.10;;;1.90;;
57615;SDS011;43816;52.054;-9.494;2023-03-31T00:01:02;2.20;;;2.00;;
57615;SDS011;43816;52.054;-9.494;2023-03-31T00:01:13;2.17;;;1.90;;
57615;SDS011;43816;52.054;-9.494;2023-03-31T00:01:23;2.10;;;1.90;;
57615;SDS011;43816;52.054;-9.494;2023-03-31T00:01:34;2.03;;;1.83;;
57615;SDS011;43816;52.054;-9.494;2023-03-31T00:01:45;2.03;;;1.92;;
57615;SDS011;43816;52.054;-9.494;2023-03-31T00:01:56;2.17;;;2.00;;
57615;SDS011;43816;52.054;-9.494;2023-03-31T00:02:06;2.20;;;2.00;;
57615;SDS011;43816;52.054;-9.494;2023-03-31T00:02:16;2.40;;;2.10;;
57615;SDS011;43816;52.054;-9.494;2023-03-31T00:02:26;2.78;;;2.00;;
57615;SDS011;43816;52.054;-9.494;2023-03-31T00:02:40;2.87;;;2.10;;
57615;SDS011;43816;52.054;-9.494;2023-03-31T00:02:50;2.22;;;2.03;;
57615;SDS011;43816;52.054;-9.494;2023-03-31T00:03:01;2.20;;;2.00;;
57615;SDS011;43816;52.054;-9.494;2023-03-31T00:03:11;2.20;;;2.00;;
57615;SDS011;43816;52.054;-9.494;2023-03-31T00:03:22;2.08;;;1.88;;
57615;SDS011;43816;52.054;-9.494;2023-03-31T00:03:33;2.20;;;1.80;;
57615;SDS011;43816;52.054;-9.494;2023-03-31T00:03:43;1.97;;;1.77;;
57615;SDS011;43816;52.054;-9.494;2023-03-31T00:03:54;2.22;;;2.00;;
57615;SDS011;43816;52.054;-9.494;2023-03-31T00:04:04;2.60;;;2.13;;
57615;SDS011;43816;52.054;-9.494;2023-03-31T00:04:15;2.60;;;2.20;;
57615;SDS011;43816;52.054;-9.494;2023-03-31T00:04:25;2.38;;;2.17;;
57615;SDS011;43816;52.054;-9.494;2023-03-31T00:04:35;2.30;;;2.10;;
57615;SDS011;43816;52.054;-9.494;2023-03-31T00:04:46;2.20;;;2.00;;
57615;SDS011;43816;52.054;-9.494;2023-03-31T00:04:57;2.10;;;1.90;;
57615;SDS011;43816;52.054;-9.494;2023-03-31T00:05:07;2.03;;;1.88;;
57615;SDS011;43816;52.054;-9.494;2023-03-31T00:05:18;2.00;;;1.85;;
57615;SDS011;43816;52.054;-9.494;2023-03-31T00:05:29;2.03;;;1.90;;
57615;SDS011;43816;52.054;-9.494;2023-03-31T00:05:39;2.10;;;1.90;;
57615;SDS011;43816;52.054;-9.494;2023-03-31T00:05:56;2.10;;;1.90;;
57615;SDS011;43816;52.054;-9.494;2023-03-31T00:06:10;2.20;;;1.98;;
57615;SDS011;43816;52.054;-9.494;2023-03-31T00:06:21;2.05;;;1.85;;
57615;SDS011;43816;52.054;-9.494;2023-03-31T00:06:35;1.90;;;1.80;;
57615;SDS011;43816;52.054;-9.494;2023-03-31T00:06:47;1.83;;;1.73;;
57615;SDS011;43816;52.054;-9.494;2023-03-31T00:06:57;1.90;;;1.80;;
57615;SDS011;43816;52.054;-9.494;2023-03-31T00:07:08;2.15;;;1.95;;
57615;SDS011;43816;52.054;-9.494;2023-03-31T00:07:19;2.20;;;2.00;;
57615;SDS011;43816;52.054;-9.494;2023-03-31T00:07:30;2.40;;;2.20;;
57615;SDS011;43816;52.054;-9.494;2023-03-31T00:07:40;2.30;;;2.10;;
57615;SDS011;43816;52.054;-9.494;2023-03-31T00:07:54;2.35;;;2.05;;
57615;SDS011;43816;52.054;-9.494;2023-03-31T00:08:05;2.15;;;1.95;;
57615;SDS011;43816;52.054;-9.494;2023-03-31T00:08:15;2.23;;;2.03;;
57615;SDS011;43816;52.054;-9.494;2023-03-31T00:08:26;2.20;;;2.00;;
57615;SDS011;43816;52.054;-9.494;2023-03-31T00:08:38;2.17;;;1.98;;
57615;SDS011;43816;52.054;-9.494;2023-03-31T00:08:48;2.05;;;1.85;;
57615;SDS011;43816;52.054;-9.494;2023-03-31T00:08:59;1.97;;;1.80;;
57615;SDS011;43816;52.054;-9.494;2023-03-31T00:09:10;1.90;;;1.80;;
57615;SDS011;43816;52.054;-9.494;2023-03-31T00:09:22;2.17;;;2.00;;
57615;SDS011;43816;52.054;-9.494;2023-03-31T00:09:33;2.20;;;2.00;;
57615;SDS011;43816;52.054;-9.494;2023-03-31T00:09:44;2.12;;;1.92;;
57615;SDS011;43816;52.054;-9.494;2023-03-31T00:09:54;2.13;;;1.97;;
57615;SDS011;43816;52.054;-9.494;2023-03-31T00:10:05;2.20;;;2.00;;
57615;SDS011;43816;52.054;-9.494;2023-03-31T00:10:15;2.20;;;1.92;;
57615;SDS011;43816;52.054;-9.494;2023-03-31T00:10:26;2.23;;;2.03;;
57615;SDS011;43816;52.054;-9.494;2023-03-31T00:10:37;2.30;;;2.10;;
57615;SDS011;43816;52.054;-9.494;2023-03-31T00:10:56;2.10;;;1.90;;
57615;SDS011;43816;52.054;-9.494;2023-03-31T00:11:08;1.77;;;1.67;;
57615;SDS011;43816;52.054;-9.494;2023-03-31T00:11:19;1.73;;;1.63;;
57615;SDS011;43816;52.054;-9.494;2023-03-31T00:11:31;1.88;;;1.75;;
57615;SDS011;43816;52.054;-9.494;2023-03-31T00:11:41;2.10;;;1.90;;
57615;SDS011;43816;52.054;-9.494;2023-03-31T00:11:51;1.97;;;1.80;;
57615;SDS011;43816;52.054;-9.494;2023-03-31T00:12:02;2.13;;;1.80;;
57615;SDS011;43816;52.054;-9.494;2023-03-31T00:12:12;2.22;;;1.80;;
57615;SDS011;43816;52.054;-9.494;2023-03-31T00:12:24;2.15;;;1.80;;
57615;SDS011;43816;52.054;-9.494;2023-03-31T00:12:34;2.00;;;1.80;;
57615;SDS011;43816;52.054;-9.494;2023-03-31T00:12:44;2.03;;;1.80;;
57615;SDS011;43816;52.054;-9.494;2023-03-31T00:12:55;2.15;;;1.90;;
57615;SDS011;43816;52.054;-9.494;2023-03-31T00:13:05;2.10;;;1.90;;
57615;SDS011;43816;52.054;-9.494;2023-03-31T00:13:15;2.43;;;2.00;;
57615;SDS011;43816;52.054;-9.494;2023-03-31T00:13:26;2.42;;;2.00;;
57615;SDS011;43816;52.054;-9.494;2023-03-31T00:13:37;2.38;;;2.00;;
57615;SDS011;43816;52.054;-9.494;2023-03-31T00:13:48;2.10;;;1.90;;
57615;SDS011;43816;52.054;-9.494;2023-03-31T00:13:58;2.23;;;2.03;;
57615;SDS011;43816;52.054;-9.494;2023-03-31T00:14:08;2.28;;;2.08;;
57615;SDS011;43816;52.054;-9.494;2023-03-31T00:14:19;2.30;;;2.07;;
57615;SDS011;43816;52.054;-9.494;2023-03-31T00:14:30;2.10;;;1.90;;
57615;SDS011;43816;52.054;-9.494;2023-03-31T00:14:40;2.20;;;1.90;;
57615;SDS011;43816;52.054;-9.494;2023-03-31T00:14:51;2.20;;;2.00;;
57615;SDS011;43816;52.054;-9.494;2023-03-31T00:15:01;2.13;;;1.93;;
57615;SDS011;43816;52.054;-9.494;2023-03-31T00:15:12;1.92;;;1.75;;
57615;SDS011;43816;52.054;-9.494;2023-03-31T00:15:22;1.80;;;1.67;;
57615;SDS011;43816;52.054;-9.494;2023-03-31T00:15:33;1.70;;;1.60;;
57615;SDS011;43816;52.054;-9.494;2023-03-31T00:15:43;2.00;;;1.80;;
57615;SDS011;43816;52.054;-9.494;2023-03-31T00:16:00;1.83;;;1.70;;
57615;SDS011;43816;52.054;-9.494;2023-03-31T00:16:13;2.47;;;1.90;;
57615;SDS011;43816;52.054;-9.494;2023-03-31T00:16:23;2.63;;;1.87;;
57615;SDS011;43816;52.054;-9.494;2023-03-31T00:16:34;2.10;;;1.80;;
57615;SDS011;43816;52.054;-9.494;2023-03-31T00:16:45;2.00;;;1.80;;
57615;SDS011;43816;52.054;-9.494;2023-03-31T00:16:56;2.30;;;1.90;;
57615;SDS011;43816;52.054;-9.494;2023-03-31T00:17:06;2.10;;;1.83;;
57615;SDS011;43816;52.054;-9.494;2023-03-31T00:17:17;2.10;;;1.90;;
57615;SDS011;43816;52.054;-9.494;2023-03-31T00:17:28;2.00;;;1.80;;
57615;SDS011;43816;52.054;-9.494;2023-03-31T00:17:38;1.90;;;1.70;;
57615;SDS011;43816;52.054;-9.494;2023-03-31T00:17:48;2.20;;;1.73;;
57615;SDS011;43816;52.054;-9.494;2023-03-31T00:17:59;2.03;;;1.70;;
57615;SDS011;43816;52.054;-9.494;2023-03-31T00:18:09;2.10;;;1.80;;
57615;SDS011;43816;52.054;-9.494;2023-03-31T00:18:19;1.83;;;1.70;;
57615;SDS011;43816;52.054;-9.494;2023-03-31T00:18:30;2.00;;;1.80;;
57615;SDS011;43816;52.054;-9.494;2023-03-31T00:18:41;2.00;;;1.80;;
57615;SDS011;43816;52.054;-9.494;2023-03-31T00:18:51;2.00;;;1.80;;
57615;SDS011;43816;52.054;-9.494;2023-03-31T00:19:01;2.20;;;1.83;;
57615;SDS011;43816;52.054;-9.494;2023-03-31T00:19:12;2.40;;;2.00;;
57615;SDS011;43816;52.054;-9.494;2023-03-31T00:19:23;2.38;;;1.95;;
57615;SDS011;43816;52.054;-9.494;2023-03-31T00:19:33;2.30;;;2.00;;
57615;SDS011;43816;52.054;-9.494;2023-03-31T00:19:44;2.13;;;1.88;;
57615;SDS011;43816;52.054;-9.494;2023-03-31T00:19:54;2.10;;;1.83;;
57615;SDS011;43816;52.054;-9.494;2023-03-31T00:20:05;2.15;;;1.95;;
57615;SDS011;43816;52.054;-9.494;2023-03-31T00:20:16;2.20;;;2.00;;
57615;SDS011;43816;52.054;-9.494;2023-03-31T00:20:26;2.20;;;2.00;;
57615;SDS011;43816;52.054;-9.494;2023-03-31T00:20:37;2.00;;;1.80;;
57615;SDS011;43816;52.054;-9.494;2023-03-31T00:20:47;1.93;;;1.73;;
57615;SDS011;43816;52.054;-9.494;2023-03-31T00:21:08;2.00;;;1.80;;
57615;SDS011;43816;52.054;-9.494;2023-03-31T00:21:21;1.85;;;1.70;;
57615;SDS011;43816;52.054;-9.494;2023-03-31T00:21:32;1.98;;;1.77;;
57615;SDS011;43816;52.054;-9.494;2023-03-31T00:21:43;1.87;;;1.70;;
57615;SDS011;43816;52.054;-9.494;2023-03-31T00:21:54;1.83;;;1.70;;
57615;SDS011;43816;52.054;-9.494;2023-03-31T00:22:04;1.90;;;1.80;;
57615;SDS011;43816;52.054;-9.494;2023-03-31T00:22:15;2.03;;;1.90;;
57615;SDS011;43816;52.054;-9.494;2023-03-31T00:22:26;2.15;;;1.95;;
57615;SDS011;43816;52.054;-9.494;2023-03-31T00:22:37;2.05;;;1.90;;
57615;SDS011;43816;52.054;-9.494;2023-03-31T00:22:48;1.80;;;1.70;;
57615;SDS011;43816;52.054;-9.494;2023-03-31T00:22:58;1.88;;;1.67;;
57615;SDS011;43816;52.054;-9.494;2023-03-31T00:23:09;1.90;;;1.70;;
57615;SDS011;43816;52.054;-9.494;2023-03-31T00:23:19;2.03;;;1.77;;
57615;SDS011;43816;52.054;-9.494;2023-03-31T00:23:30;2.03;;;1.75;;
57615;SDS011;43816;52.054;-9.494;2023-03-31T00:23:40;1.97;;;1.73;;
57615;SDS011;43816;52.054;-9.494;2023-03-31T00:23:57;1.95;;;1.70;;
57615;SDS011;43816;52.054;-9.494;2023-03-31T00:24:10;1.90;;;1.70;;
57615;SDS011;43816;52.054;-9.494;2023-03-31T00:24:21;1.67;;;1.58;;
57615;SDS011;43816;52.054;-9.494;2023-03-31T00:24:32;1.67;;;1.57;;
57615;SDS011;43816;52.054;-9.494;2023-03-31T00:24:43;1.85;;;1.60;;
57615;SDS011;43816;52.054;-9.494;2023-03-31T00:24:54;1.93;;;1.70;;
57615;SDS011;43816;52.054;-9.494;2023-03-31T00:25:04;1.92;;;1.67;;
57615;SDS011;43816;52.054;-9.494;2023-03-31T00:25:15;2.00;;;1.70;;
57615;SDS011;43816;52.054;-9.494;2023-03-31T00:25:25;2.30;;;1.77;;
57615;SDS011;43816;52.054;-9.494;2023-03-31T00:25:39;2.58;;;1.90;;
57615;SDS011;43816;52.054;-9.494;2023-03-31T00:25:50;2.40;;;2.00;;
57615;SDS011;43816;52.054;-9.494;2023-03-31T00:26:00;2.13;;;1.93;;
57615;SDS011;43816;52.054;-9.494;2023-03-31T00:26:10;2.07;;;1.87;;
57615;SDS011;43816;52.054;-9.494;2023-03-31T00:26:21;1.80;;;1.70;;
57615;SDS011;43816;52.054;-9.494;2023-03-31T00:26:32;2.00;;;1.80;;
57615;SDS011;43816;52.054;-9.494;2023-03-31T00:26:43;1.83;;;1.70;;
57615;SDS011;43816;52.054;-9.494;2023-03-31T00:26:54;2.03;;;1.77;;
57615;SDS011;43816;52.054;-9.494;2023-03-31T00:27:04;2.27;;;1.90;;
57615;SDS011;43816;52.054;-9.494;2023-03-31T00:27:14;2.40;;;2.10;;
57615;SDS011;43816;52.054;-9.494;2023-03-31T00:27:25;2.28;;;1.95;;
57615;SDS011;43816;52.054;-9.494;2023-03-31T00:27:35;2.20;;;1.80;;
57615;SDS011;43816;52.054;-9.494;2023-03-31T00:27:46;1.92;;;1.70;;
57615;SDS011;43816;52.054;-9.494;2023-03-31T00:27:56;2.00;;;1.80;;
57615;SDS011;43816;52.054;-9.494;2023-03-31T00:28:06;1.93;;;1.80;;
57615;SDS011;43816;52.054;-9.494;2023-03-31T00:28:16;1.73;;;1.60;;
57615;SDS011;43816;52.054;-9.494;2023-03-31T00:28:27;1.77;;;1.60;;
57615;SDS011;43816;52.054;-9.494;2023-03-31T00:28:37;1.73;;;1.57;;
57615;SDS011;43816;52.054;-9.494;2023-03-31T00:28:48;2.08;;;1.70;;
57615;SDS011;43816;52.054;-9.494;2023-03-31T00:28:59;2.38;;;1.70;;
57615;SDS011;43816;52.054;-9.494;2023-03-31T00:29:11;2.33;;;1.80;;
57615;SDS011;43816;52.054;-9.494;2023-03-31T00:29:22;2.00;;;1.80;;
57615;SDS011;43816;52.054;-9.494;2023-03-31T00:29:32;2.10;;;1.90;;
57615;SDS011;43816;52.054;-9.494;2023-03-31T00:29:42;2.00;;;1.80;;
57615;SDS011;43816;52.054;-9.494;2023-03-31T00:29:53;1.83;;;1.73;;
57615;SDS011;43816;52.054;-9.494;2023-03-31T00:30:03;1.70;;;1.60;;
57615;SDS011;43816;52.054;-9.494;2023-03-31T00:30:14;1.85;;;1.73;;
57615;SDS011;43816;52.054;-9.494;2023-03-31T00:30:25;2.20;;;1.90;;
57615;SDS011;43816;52.054;-9.494;2023-03-31T00:30:37;2.22;;;1.80;;
57615;SDS011;43816;52.054;-9.494;2023-03-31T00:30:48;1.70;;;1.60;;
57615;SDS011;43816;52.054;-9.494;2023-03-31T00:31:00;1.60;;;1.50;;
57615;SDS011;43816;52.054;-9.494;2023-03-31T00:31:11;1.95;;;1.70;;
57615;SDS011;43816;52.054;-9.494;2023-03-31T00:31:22;2.23;;;1.70;;
57615;SDS011;43816;52.054;-9.494;2023-03-31T00:31:33;2.10;;;1.70;;
57615;SDS011;43816;52.054;-9.494;2023-03-31T00:31:47;1.88;;;1.60;;
57615;SDS011;43816;52.054;-9.494;2023-03-31T00:31:57;1.77;;;1.65;;
57615;SDS011;43816;52.054;-9.494;2023-03-31T00:32:07;1.77;;;1.63;;
57615;SDS011;43816;52.054;-9.494;2023-03-31T00:32:18;1.70;;;1.60;;
57615;SDS011;43816;52.054;-9.494;2023-03-31T00:32:28;1.70;;;1.60;;
57615;SDS011;43816;52.054;-9.494;2023-03-31T00:32:38;1.80;;;1.70;;
57615;SDS011;43816;52.054;-9.494;2023-03-31T00:32:49;1.95;;;1.75;;
57615;SDS011;43816;52.054;-9.494;2023-03-31T00:32:59;1.93;;;1.73;;
57615;SDS011;43816;52.054;-9.494;2023-03-31T00:33:09;2.03;;;1.70;;
57615;SDS011;43816;52.054;-9.494;2023-03-31T00:33:19;2.03;;;1.70;;
57615;SDS011;43816;52.054;-9.494;2023-03-31T00:33:30;2.00;;;1.70;;
57615;SDS011;43816;52.054;-9.494;2023-03-31T00:33:40;1.90;;;1.73;;
57615;SDS011;43816;52.054;-9.494;2023-03-31T00:33:51;1.98;;;1.77;;
57615;SDS011;43816;52.054;-9.494;2023-03-31T00:34:01;2.10;;;1.90;;
57615;SDS011;43816;52.054;-9.494;2023-03-31T00:34:11;2.25;;;1.90;;
57615;SDS011;43816;52.054;-9.494;2023-03-31T00:34:22;2.03;;;1.80;;
57615;SDS011;43816;52.054;-9.494;2023-03-31T00:34:32;2.00;;;1.73;;
57615;SDS011;43816;52.054;-9.494;2023-03-31T00:34:42;1.70;;;1.60;;
57615;SDS011;43816;52.054;-9.494;2023-03-31T00:34:54;1.58;;;1.48;;
57615;SDS011;43816;52.054;-9.494;2023-03-31T00:35:05;1.63;;;1.53;;
57615;SDS011;43816;52.054;-9.494;2023-03-31T00:35:15;1.73;;;1.63;;
57615;SDS011;43816;52.054;-9.494;2023-03-31T00:35:26;1.70;;;1.60;;
57615;SDS011;43816;52.054;-9.494;2023-03-31T00:35:36;1.77;;;1.60;;
57615;SDS011;43816;52.054;-9.494;2023-03-31T00:35:49;1.90;;;1.65;;
57615;SDS011;43816;52.054;-9.494;2023-03-31T00:36:00;2.10;;;1.77;;
57615;SDS011;43816;52.054;-9.494;2023-03-31T00:36:10;2.10;;;1.90;;
57615;SDS011;43816;52.054;-9.494;2023-03-31T00:36:21;2.10;;;1.90;;
57615;SDS011;43816;52.054;-9.494;2023-03-31T00:36:32;1.85;;;1.70;;
57615;SDS011;43816;52.054;-9.494;2023-03-31T00:36:43;1.80;;;1.70;;
57615;SDS011;43816;52.054;-9.494;2023-03-31T00:36:53;1.70;;;1.60;;
57615;SDS011;43816;52.054;-9.494;2023-03-31T00:37:03;1.80;;;1.70;;
57615;SDS011;43816;52.054;-9.494;2023-03-31T00:37:14;1.90;;;1.70;;
57615;SDS011;43816;52.054;-9.494;2023-03-31T00:37:24;1.63;;;1.52;;
57615;SDS011;43816;52.054;-9.494;2023-03-31T00:37:34;1.70;;;1.60;;
57615;SDS011;43816;52.054;-9.494;2023-03-31T00:37:45;1.67;;;1.57;;
57615;SDS011;43816;52.054;-9.494;2023-03-31T00:37:55;1.83;;;1.65;;
57615;SDS011;43816;52.054;-9.494;2023-03-31T00:38:05;2.00;;;1.60;;
57615;SDS011;43816;52.054;-9.494;2023-03-31T00:38:15;2.30;;;1.70;;
57615;SDS011;43816;52.054;-9.494;2023-03-31T00:38:26;2.20;;;1.80;;
57615;SDS011;43816;52.054;-9.494;2023-03-31T00:38:38;1.95;;;1.77;;
57615;SDS011;43816;52.054;-9.494;2023-03-31T00:38:48;1.70;;;1.57;;
57615;SDS011;43816;52.054;-9.494;2023-03-31T00:39:00;1.70;;;1.57;;
57615;SDS011;43816;52.054;-9.494;2023-03-31T00:39:13;1.77;;;1.60;;
57615;SDS011;43816;52.054;-9.494;2023-03-31T00:39:26;1.85;;;1.65;;
57615;SDS011;43816;52.054;-9.494;2023-03-31T00:39:37;1.75;;;1.60;;
57615;SDS011;43816;52.054;-9.494;2023-03-31T00:39:47;1.73;;;1.60;;
57615;SDS011;43816;52.054;-9.494;2023-03-31T00:39:58;1.70;;;1.60;;
57615;SDS011;43816;52.054;-9.494;2023-03-31T00:40:08;1.90;;;1.70;;
57615;SDS011;43816;52.054;-9.494;2023-03-31T00:40:19;1.83;;;1.73;;
57615;SDS011;43816;52.054;-9.494;2023-03-31T00:40:29;1.95;;;1.85;;
57615;SDS011;43816;52.054;-9.494;2023-03-31T00:40:44;1.87;;;1.70;;
57615;SDS011;43816;52.054;-9.494;2023-03-31T00:40:55;2.08;;;1.65;;
57615;SDS011;43816;52.054;-9.494;2023-03-31T00:41:05;1.88;;;1.63;;
57615;SDS011;43816;52.054;-9.494;2023-03-31T00:41:16;1.73;;;1.60;;
57615;SDS011;43816;52.054;-9.494;2023-03-31T00:41:29;1.73;;;1.63;;
57615;SDS011;43816;52.054;-9.494;2023-03-31T00:41:40;1.92;;;1.70;;
57615;SDS011;43816;52.054;-9.494;2023-03-31T00:41:50;2.08;;;1.67;;
57615;SDS011;43816;52.054;-9.494;2023-03-31T00:42:02;2.07;;;1.70;;
57615;SDS011;43816;52.054;-9.494;2023-03-31T00:42:13;2.03;;;1.70;;
57615;SDS011;43816;52.054;-9.494;2023-03-31T00:42:23;1.98;;;1.60;;
57615;SDS011;43816;52.054;-9.494;2023-03-31T00:42:40;1.95;;;1.58;;
57615;SDS011;43816;52.054;-9.494;2023-03-31T00:42:52;1.77;;;1.60;;
57615;SDS011;43816;52.054;-9.494;2023-03-31T00:43:02;1.92;;;1.58;;
57615;SDS011;43816;52.054;-9.494;2023-03-31T00:44:32;2.20;;;1.80;;
57615;SDS011;43816;52.054;-9.494;2023-03-31T00:45:24;1.90;;;1.70;;
57615;SDS011;43816;52.054;-9.494;2023-03-31T00:45:39;1.98;;;1.77;;
57615;SDS011;43816;52.054;-9.494;2023-03-31T00:45:49;1.70;;;1.60;;
57615;SDS011;43816;52.054;-9.494;2023-03-31T00:46:10;1.87;;;1.70;;
57615;SDS011;43816;52.054;-9.494;2023-03-31T00:46:39;1.98;;;1.70;;
57615;SDS011;43816;52.054;-9.494;2023-03-31T00:47:27;1.98;;;1.77;;
57615;SDS011;43816;52.054;-9.494;2023-03-31T00:47:46;1.77;;;1.67;;
57615;SDS011;43816;52.054;-9.494;2023-03-31T00:48:06;1.95;;;1.70;;
57615;SDS011;43816;52.054;-9.494;2023-03-31T00:48:23;1.67;;;1.50;;
57615;SDS011;43816;52.054;-9.494;2023-03-31T00:48:34;1.83;;;1.53;;
57615;SDS011;43816;52.054;-9.494;2023-03-31T00:48:47;2.05;;;1.60;;
57615;SDS011;43816;52.054;-9.494;2023-03-31T00:49:00;1.90;;;1.70;;
57615;SDS011;43816;52.054;-9.494;2023-03-31T00:49:18;1.87;;;1.60;;
57615;SDS011;43816;52.054;-9.494;2023-03-31T00:49:58;2.60;;;1.67;;
57615;SDS011;43816;52.054;-9.494;2023-03-31T00:50:13;2.17;;;1.70;;
57615;SDS011;43816;52.054;-9.494;2023-03-31T00:50:30;1.65;;;1.55;;
57615;SDS011;43816;52.054;-9.494;2023-03-31T00:51:03;2.10;;;1.65;;
57615;SDS011;43816;52.054;-9.494;2023-03-31T00:51:16;1.70;;;1.60;;
57615;SDS011;43816;52.054;-9.494;2023-03-31T00:51:28;1.90;;;1.73;;
57615;SDS011;43816;52.054;-9.494;2023-03-31T00:51:42;2.25;;;1.80;;
57615;SDS011;43816;52.054;-9.494;2023-03-31T00:51:54;2.50;;;1.83;;
57615;SDS011;43816;52.054;-9.494;2023-03-31T00:52:50;1.60;;;1.50;;
57615;SDS011;43816;52.054;-9.494;2023-03-31T00:53:06;1.60;;;1.50;;
57615;SDS011;43816;52.054;-9.494;2023-03-31T00:53:22;1.70;;;1.60;;
57615;SDS011;43816;52.054;-9.494;2023-03-31T00:53:35;1.95;;;1.77;;
57615;SDS011;43816;52.054;-9.494;2023-03-31T00:53:48;2.27;;;1.90;;
57615;SDS011;43816;52.054;-9.494;2023-03-31T00:54:03;1.90;;;1.67;;
57615;SDS011;43816;52.054;-9.494;2023-03-31T00:54:15;1.60;;;1.50;;
57615;SDS011;43816;52.054;-9.494;2023-03-31T00:54:26;1.50;;;1.40;;
57615;SDS011;43816;52.054;-9.494;2023-03-31T00:54:38;1.50;;;1.40;;
57615;SDS011;43816;52.054;-9.494;2023-03-31T00:54:55;1.50;;;1.40;;
57615;SDS011;43816;52.054;-9.494;2023-03-31T00:55:13;1.75;;;1.50;;
57615;SDS011;43816;52.054;-9.494;2023-03-31T00:55:30;2.03;;;1.60;;
57615;SDS011;43816;52.054;-9.494;2023-03-31T00:55:46;1.73;;;1.52;;
57615;SDS011;43816;52.054;-9.494;2023-03-31T00:56:10;1.50;;;1.40;;
57615;SDS011;43816;52.054;-9.494;2023-03-31T00:56:23;1.80;;;1.50;;
57615;SDS011;43816;52.054;-9.494;2023-03-31T00:56:35;2.03;;;1.60;;
57615;SDS011;43816;52.054;-9.494;2023-03-31T00:56:48;1.65;;;1.52;;
57615;SDS011;43816;52.054;-9.494;2023-03-31T00:57:01;1.70;;;1.60;;
57615;SDS011;43816;52.054;-9.494;2023-03-31T00:57:13;2.85;;;1.73;;
57615;SDS011;43816;52.054;-9.494;2023-03-31T00:57:24;3.20;;;1.63;;
57615;SDS011;43816;52.054;-9.494;2023-03-31T00:57:37;2.70;;;1.63;;
57615;SDS011;43816;52.054;-9.494;2023-03-31T00:57:49;1.85;;;1.60;;
57615;SDS011;43816;52.054;-9.494;2023-03-31T00:58:00;1.85;;;1.67;;
57615;SDS011;43816;52.054;-9.494;2023-03-31T00:58:11;1.60;;;1.50;;
57615;SDS011;43816;52.054;-9.494;2023-03-31T00:58:23;1.70;;;1.60;;
57615;SDS011;43816;52.054;-9.494;2023-03-31T00:58:35;1.75;;;1.65;;
57615;SDS011;43816;52.054;-9.494;2023-03-31T00:58:45;1.70;;;1.60;;
57615;SDS011;43816;52.054;-9.494;2023-03-31T00:58:56;1.92;;;1.50;;
57615;SDS011;43816;52.054;-9.494;2023-03-31T00:59:11;2.17;;;1.58;;
57615;SDS011;43816;52.054;-9.494;2023-03-31T00:59:23;2.07;;;1.67;;
57615;SDS011;43816;52.054;-9.494;2023-03-31T00:59:37;2.05;;;1.83;;
57615;SDS011;43816;52.054;-9.494;2023-03-31T00:59:52;2.10;;;1.80;;
57615;SDS011;43816;52.054;-9.494;2023-03-31T01:00:08;1.80;;;1.50;;
57615;SDS011;43816;52.054;-9.494;2023-03-31T01:00:20;2.00;;;1.48;;
57615;SDS011;43816;52.054;-9.494;2023-03-31T01:00:31;1.70;;;1.37;;
57615;SDS011;43816;52.054;-9.494;2023-03-31T01:00:42;1.63;;;1.30;;
57615;SDS011;43816;52.054;-9.494;2023-03-31T01:00:53;1.65;;;1.50;;
57615;SDS011;43816;52.054;-9.494;2023-03-31T01:01:06;2.10;;;1.67;;
57615;SDS011;43816;52.054;-9.494;2023-03-31T01:01:18;2.20;;;1.70;;
57615;SDS011;43816;52.054;-9.494;2023-03-31T01:01:31;2.00;;;1.65;;
57615;SDS011;43816;52.054;-9.494;2023-03-31T01:01:43;1.70;;;1.50;;
57615;SDS011;43816;52.054;-9.494;2023-03-31T01:01:56;2.17;;;1.58;;
57615;SDS011;43816;52.054;-9.494;2023-03-31T01:02:09;2.15;;;1.70;;
57615;SDS011;43816;52.054;-9.494;2023-03-31T01:02:22;1.58;;;1.48;;
57615;SDS011;43816;52.054;-9.494;2023-03-31T01:02:33;1.60;;;1.48;;
57615;SDS011;43816;52.054;-9.494;2023-03-31T01:02:47;1.80;;;1.53;;
57615;SDS011;43816;52.054;-9.494;2023-03-31T01:03:02;2.00;;;1.65;;
57615;SDS011;43816;52.054;-9.494;2023-03-31T01:03:15;2.28;;;1.60;;
57615;SDS011;43816;52.054;-9.494;2023-03-31T01:03:26;2.10;;;1.63;;
57615;SDS011;43816;52.054;-9.494;2023-03-31T01:03:37;2.25;;;1.65;;
57615;SDS011;43816;52.054;-9.494;2023-03-31T01:03:47;2.03;;;1.55;;
57615;SDS011;43816;52.054;-9.494;2023-03-31T01:03:58;1.73;;;1.40;;
57615;SDS011;43816;52.054;-9.494;2023-03-31T01:04:08;1.33;;;1.23;;
57615;SDS011;43816;52.054;-9.494;2023-03-31T01:04:21;1.30;;;1.20;;
57615;SDS011;43816;52.054;-9.494;2023-03-31T01:04:36;1.38;;;1.27;;
57615;SDS011;43816;52.054;-9.494;2023-03-31T01:04:52;1.33;;;1.23;;
57615;SDS011;43816;52.054;-9.494;2023-03-31T01:05:06;1.40;;;1.30;;
57615;SDS011;43816;52.054;-9.494;2023-03-31T01:05:18;1.67;;;1.58;;
57615;SDS011;43816;52.054;-9.494;2023-03-31T01:06:18;2.55;;;1.75;;
57615;SDS011;43816;52.054;-9.494;2023-03-31T01:06:28;2.53;;;1.67;;
57615;SDS011;43816;52.054;-9.494;2023-03-31T01:06:42;1.87;;;1.50;;
57615;SDS011;43816;52.054;-9.494;2023-03-31T01:07:02;1.70;;;1.60;;
57615;SDS011;43816;52.054;-9.494;2023-03-31T01:07:30;1.73;;;1.50;;
57615;SDS011;43816;52.054;-9.494;2023-03-31T01:07:47;2.33;;;1.60;;
57615;SDS011;43816;52.054;-9.494;2023-03-31T01:07:59;1.83;;;1.65;;
57615;SDS011;43816;52.054;-9.494;2023-03-31T01:08:10;1.60;;;1.50;;
57615;SDS011;43816;52.054;-9.494;2023-03-31T01:08:25;1.48;;;1.38;;
57615;SDS011;43816;52.054;-9.494;2023-03-31T01:08:37;1.58;;;1.45;;
57615;SDS011;43816;52.054;-9.494;2023-03-31T01:08:48;1.63;;;1.52;;
57615;SDS011;43816;52.054;-9.494;2023-03-31T01:09:00;1.85;;;1.55;;
57615;SDS011;43816;52.054;-9.494;2023-03-31T01:09:12;1.77;;;1.50;;
57615;SDS011;43816;52.054;-9.494;2023-03-31T01:09:23;1.80;;;1.52;;
57615;SDS011;43816;52.054;-9.494;2023-03-31T01:09:34;1.75;;;1.60;;
57615;SDS011;43816;52.054;-9.494;2023-03-31T01:09:45;1.70;;;1.60;;
57615;SDS011;43816;52.054;-9.494;2023-03-31T01:09:57;1.73;;;1.58;;
57615;SDS011;43816;52.054;-9.494;2023-03-31T01:10:10;1.95;;;1.50;;
57615;SDS011;43816;52.054;-9.494;2023-03-31T01:10:24;2.10;;;1.60;;
57615;SDS011;43816;52.054;-9.494;2023-03-31T01:10:36;1.60;;;1.50;;
57615;SDS011;43816;52.054;-9.494;2023-03-31T01:10:51;1.60;;;1.50;;
57615;SDS011;43816;52.054;-9.494;2023-03-31T01:11:05;1.50;;;1.40;;
57615;SDS011;43816;52.054;-9.494;2023-03-31T01:11:19;1.45;;;1.35;;
57615;SDS011;43816;52.054;-9.494;2023-03-31T01:11:31;1.55;;;1.40;;
57615;SDS011;43816;52.054;-9.494;2023-03-31T01:11:43;1.65;;;1.50;;
57615;SDS011;43816;52.054;-9.494;2023-03-31T01:11:55;1.60;;;1.50;;
57615;SDS011;43816;52.054;-9.494;2023-03-31T01:12:06;1.50;;;1.40;;
57615;SDS011;43816;52.054;-9.494;2023-03-31T01:12:19;1.40;;;1.30;;
57615;SDS011;43816;52.054;-9.494;2023-03-31T01:12:31;1.35;;;1.20;;
57615;SDS011;43816;52.054;-9.494;2023-03-31T01:12:48;1.95;;;1.30;;
57615;SDS011;43816;52.054;-9.494;2023-03-31T01:13:01;2.00;;;1.40;;
57615;SDS011;43816;52.054;-9.494;2023-03-31T01:13:12;1.67;;;1.42;;
57615;SDS011;43816;52.054;-9.494;2023-03-31T01:13:25;1.35;;;1.23;;
57615;SDS011;43816;52.054;-9.494;2023-03-31T01:13:37;1.35;;;1.25;;
57615;SDS011;43816;52.054;-9.494;2023-03-31T01:13:50;1.40;;;1.30;;
57615;SDS011;43816;52.054;-9.494;2023-03-31T01:14:02;1.55;;;1.45;;
57615;SDS011;43816;52.054;-9.494;2023-03-31T01:14:13;1.50;;;1.40;;
57615;SDS011;43816;52.054;-9.494;2023-03-31T01:14:23;1.50;;;1.40;;
57615;SDS011;43816;52.054;-9.494;2023-03-31T01:14:34;2.08;;;1.40;;
57615;SDS011;43816;52.054;-9.494;2023-03-31T01:14:45;2.15;;;1.40;;
57615;SDS011;43816;52.054;-9.494;2023-03-31T01:14:55;2.07;;;1.37;;